CheckWX is a tool to help pilots better visualize weather data.  It is not intended as a substitute for an official pre-flight weather briefing.

01:08:57 UTC

MMGL TAF
Don Miguel Hidalgo Y Costilla International Airport
Guadalajara, Mexico
TAF MMGL 232310Z 2400/2506 30010KT P6SM SCT030 BKN120 BKN300 TX25/2421Z TN13/2412Z FM240600 24005KT P6SM SCT120 BKN300 FM241800 20010KT P6SM SCT030 BKN100 BKN300 FM250400 16005KT P6SM BKN120 BKN300

Feb-24@
00:00 UTC

Feb-24 @ 00:00 UTC

Feb-24@
06:00 UTC

Feb-24 @ 06:00 UTC

TAF MMGL 232310Z 2400/2506 30010KT P6SM SCT030 BKN120 BKN300 TX25/2421Z TN13/2412Z
Wind
  • 300° at 10 KTS
Cloud Levels
  • Scattered at 3,000' AGL
  • Broken at 12,000' AGL
  • Broken at 30,000' AGL

Feb-24@
06:00 UTC

Feb-24 @ 06:00 UTC

Feb-24@
18:00 UTC

Feb-24 @ 18:00 UTC

FM240600 24005KT P6SM SCT120 BKN300

From

From Standard forecast or significant change

Wind
  • 240° at 5 KTS
Cloud Levels
  • Scattered at 12,000' AGL
  • Broken at 30,000' AGL

Feb-24@
18:00 UTC

Feb-24 @ 18:00 UTC

Feb-25@
04:00 UTC

Feb-25 @ 04:00 UTC

FM241800 20010KT P6SM SCT030 BKN100 BKN300

From

From Standard forecast or significant change

Wind
  • 200° at 10 KTS
Cloud Levels
  • Scattered at 3,000' AGL
  • Broken at 10,000' AGL
  • Broken at 30,000' AGL

Feb-25@
04:00 UTC

Feb-25 @ 04:00 UTC

Feb-25@
06:00 UTC

Feb-25 @ 06:00 UTC

FM250400 16005KT P6SM BKN120 BKN300

From

From Standard forecast or significant change

Wind
  • 160° at 5 KTS
Cloud Levels
  • Broken at 12,000' AGL
  • Broken at 30,000' AGL